Thalassa Niki — 9V2233 — position and weather

sailwx.info

Track history (hours):
 
Tides and Currents Weather Stations Pressure Air Temp Water Temp Dewpoint Dewpoint Depression Visibility Wind Speed Wind Dir Waves Ship Positions

Thalassa Niki

Last reported at 2017-Oct-18 10:04 UTC. Time now 2017-Oct-18 13:01 UTC.
Position N 30°36' E 122°05'.

Length 368 m; draft 14.7 m.

Type: Ship (hazmat cat A). MMSI: 564728000.

Date/timePositionNaut miles runAvg speedWind from/ knotsBaromVisibWave heightAir tempDewpointWater temp
2017-Oct-18 10:04N 30°36' E 122°05'0 2.0
2017-Oct-18 09:59N 30°36' E 122°04'610.5
2017-Oct-18 09:26N 30°34' E 122°11'  
2017-Oct-14 08:24N 22°51' E 119°55'718.9
2017-Oct-14 08:00N 22°44' E 119°58'918.6
2017-Oct-14 07:30N 22°37' E 120°05'816.8
2017-Oct-14 07:00N 22°33' E 120°13'611.3
2017-Oct-14 06:29N 22°33' E 120°19'0 0.0
2017-Oct-13 05:08N 22°33' E 120°19'0 0.0
2017-Oct-13 05:00N 22°33' E 120°19'1 1.5
2017-Oct-13 04:30N 22°33' E 120°18'3 5.9
2017-Oct-13 04:00N 22°32' E 120°15'3 6.4
2017-Oct-13 03:30N 22°31' E 120°12'4 8.5
2017-Oct-13 03:00N 22°28' E 120°08'714.9
2017-Oct-13 02:30N 22°22' E 120°04'1020.9
2017-Oct-13 02:00N 22°14' E 119°57'  
2017-Oct-10 07:04N 01°13' E 103°55'0 7.0
2017-Oct-10 07:00N 01°13' E 103°55'3 5.8
2017-Oct-10 06:30N 01°11' E 103°52'3 5.5
2017-Oct-10 06:00N 01°10' E 103°49'3 5.3
2017-Oct-10 05:30N 01°09' E 103°47'3 5.4
2017-Oct-10 04:58N 01°07' E 103°45'23 4.4
2017-Oct-09 23:39N 01°15' E 104°07'318.4
2017-Oct-09 23:30N 01°15' E 104°04'917.6
2017-Oct-09 23:00N 01°13' E 103°56'816.6
2017-Oct-09 22:30N 01°10' E 103°48'816.8
2017-Oct-09 22:00N 01°04' E 103°42'713.0
2017-Oct-09 21:30N 01°05' E 103°35'917.6
2017-Oct-09 21:00N 01°09' E 103°28'918.5
2017-Oct-09 20:30N 01°15' E 103°20'  
Track history (hours):
 
Tides and Currents Weather Stations Pressure Air Temp Water Temp Dewpoint Dewpoint Depression Visibility Wind Speed Wind Dir Waves Ship Positions

Thalassa Niki

Last reported at 2017-Oct-18 10:04 UTC. Time now 2017-Oct-18 13:01 UTC.
Position N 30°36' E 122°05'.

Length 368 m; draft 14.7 m.

Type: Ship (hazmat cat A). MMSI: 564728000.

Date/timePositionNaut miles runAvg speedWind from/ knotsBaromVisibWave heightAir tempDewpointWater temp
2017-Oct-18 10:04N 30°36' E 122°05'0 2.0
2017-Oct-18 09:59N 30°36' E 122°04'610.5
2017-Oct-18 09:26N 30°34' E 122°11'  
2017-Oct-14 08:24N 22°51' E 119°55'718.9
2017-Oct-14 08:00N 22°44' E 119°58'918.6
2017-Oct-14 07:30N 22°37' E 120°05'816.8
2017-Oct-14 07:00N 22°33' E 120°13'611.3
2017-Oct-14 06:29N 22°33' E 120°19'0 0.0
2017-Oct-13 05:08N 22°33' E 120°19'0 0.0
2017-Oct-13 05:00N 22°33' E 120°19'1 1.5
2017-Oct-13 04:30N 22°33' E 120°18'3 5.9
2017-Oct-13 04:00N 22°32' E 120°15'3 6.4
2017-Oct-13 03:30N 22°31' E 120°12'4 8.5
2017-Oct-13 03:00N 22°28' E 120°08'714.9
2017-Oct-13 02:30N 22°22' E 120°04'1020.9
2017-Oct-13 02:00N 22°14' E 119°57'  
2017-Oct-10 07:04N 01°13' E 103°55'0 7.0
2017-Oct-10 07:00N 01°13' E 103°55'3 5.8
2017-Oct-10 06:30N 01°11' E 103°52'3 5.5
2017-Oct-10 06:00N 01°10' E 103°49'3 5.3
2017-Oct-10 05:30N 01°09' E 103°47'3 5.4
2017-Oct-10 04:58N 01°07' E 103°45'23 4.4
2017-Oct-09 23:39N 01°15' E 104°07'318.4
2017-Oct-09 23:30N 01°15' E 104°04'917.6
2017-Oct-09 23:00N 01°13' E 103°56'816.6
2017-Oct-09 22:30N 01°10' E 103°48'816.8
2017-Oct-09 22:00N 01°04' E 103°42'713.0
2017-Oct-09 21:30N 01°05' E 103°35'917.6
2017-Oct-09 21:00N 01°09' E 103°28'918.5
2017-Oct-09 20:30N 01°15' E 103°20'  

Dump ship's entire track history